Time;durP1;ratioP1;P1;durP2;ratioP2;P2;SDS_P1;SDS_P2;PMS_P1;PMS_P2;Temp;Humidity;BMP_temperature;BMP_pressure;BME280_temperature;BME280_humidity;BME280_pressure;Samples;Min_cycle;Max_cycle;Signal;HPM_P1;HPM_P2
2022/11/06 00:03:25;;;;;;;4.32;2.70;;;;;;;11.95;68.03;99797.03;7762994;32;37802;-81
2022/11/06 00:07:45;;;;;;;4.55;2.92;;;;;;;12.10;67.49;99803.50;7762871;32;37191;-80
2022/11/06 00:12:02;;;;;;;3.75;2.53;;;;;;;11.85;68.47;99799.78;7766378;32;39271;-81
2022/11/06 00:16:19;;;;;;;3.78;2.75;;;;;;;11.91;67.68;99804.13;7766582;32;39926;-81
2022/11/06 00:20:36;;;;;;;6.93;3.65;;;;;;;11.77;68.27;99803.09;7766522;32;37544;-81
2022/11/06 00:24:52;;;;;;;5.82;2.87;;;;;;;11.44;69.80;99799.94;7766298;32;36937;-81
2022/11/06 00:29:13;;;;;;;4.00;2.42;;;;;;;11.62;69.07;99802.06;7765280;32;39045;-81
2022/11/06 00:33:29;;;;;;;6.68;2.85;;;;;;;12.01;67.71;99793.16;7766367;32;40833;-82
2022/11/06 00:37:46;;;;;;;4.97;3.03;;;;;;;11.58;69.36;99794.69;7766240;32;37917;-81
2022/11/06 00:42:02;;;;;;;5.70;2.70;;;;;;;11.27;70.18;99801.03;7766312;32;36950;-81
2022/11/06 00:46:19;;;;;;;4.50;2.55;;;;;;;11.85;68.67;99797.06;7766313;32;39194;-82
2022/11/06 00:50:36;;;;;;;5.22;2.87;;;;;;;11.81;68.20;99799.53;7766173;32;39994;-81
2022/11/06 00:54:52;;;;;;;4.10;2.60;;;;;;;11.43;70.19;99801.00;7766107;32;37914;-81
2022/11/06 00:59:11;;;;;;;5.50;2.80;;;;;;;11.98;68.09;99804.66;7766006;32;36909;-81
2022/11/06 01:03:27;;;;;;;6.07;3.50;;;;;;;11.94;68.23;99798.13;7765028;32;40041;-81
2022/11/06 01:07:43;;;;;;;5.47;3.40;;;;;;;11.85;68.70;99797.06;7765992;32;40968;-81
2022/11/06 01:12:00;;;;;;;4.82;3.22;;;;;;;11.09;70.52;99804.38;7765940;32;38010;-81
2022/11/06 01:16:32;;;;;;;4.87;2.95;;;;;;;11.08;71.80;99802.72;7765914;32;37058;-81
2022/11/06 01:20:48;;;;;;;5.07;3.10;;;;;;;11.21;71.81;99807.62;7765391;32;39907;-81
2022/11/06 01:25:05;;;;;;;5.95;3.60;;;;;;;11.53;70.35;99798.25;7765680;32;39934;-81
2022/11/06 01:29:21;;;;;;;6.93;3.50;;;;;;;11.62;69.79;99802.06;7765644;32;37947;-81
2022/11/06 01:33:38;;;;;;;7.35;3.67;;;;;;;11.41;69.65;99806.75;7765736;32;36951;-81
2022/11/06 01:37:54;;;;;;;5.70;3.33;;;;;;;11.21;70.46;99804.88;7765700;32;39981;-81
2022/11/06 01:42:12;;;;;;;5.87;3.53;;;;;;;11.60;69.51;99803.41;7765468;32;40902;-81
2022/11/06 01:46:34;;;;;;;5.07;3.53;;;;;;;11.97;67.72;99800.31;7764346;32;37754;-81
2022/11/06 01:50:54;;;;;;;8.07;3.80;;;;;;;11.49;69.47;99794.44;7765602;32;36754;-81
2022/11/06 01:55:29;;;;;;;6.53;3.45;;;;;;;11.25;70.83;99808.69;7764393;32;39199;-81
2022/11/06 01:59:46;;;;;;;5.93;3.20;;;;;;;11.59;69.34;99799.03;7765398;32;41503;-81
2022/11/06 02:04:08;;;;;;;6.95;3.35;;;;;;;11.72;69.07;99801.19;7765269;32;37881;-81
2022/11/06 02:08:24;;;;;;;8.18;3.85;;;;;;;11.60;69.44;99804.22;7765309;32;36829;-82
2022/11/06 02:12:53;;;;;;;6.97;3.30;;;;;;;11.78;68.92;99799.25;7764043;32;40050;-81
2022/11/06 02:17:33;;;;;;;7.40;3.17;;;;;;;11.09;71.34;99809.81;7765254;32;39863;-81
2022/11/06 02:22:09;;;;;;;5.28;3.28;;;;;;;11.85;68.52;99807.97;7764054;32;37812;-80
2022/11/06 02:26:47;;;;;;;6.20;3.40;;;;;;;11.74;68.30;99809.91;7764929;32;36876;-80
2022/11/06 02:31:14;;;;;;;5.97;3.10;;;;;;;11.75;68.63;99816.22;7764149;32;39962;-81
2022/11/06 02:35:44;;;;;;;8.65;3.50;;;;;;;11.95;67.55;99816.16;7763628;32;41556;-81
2022/11/06 02:40:01;;;;;;;8.15;3.40;;;;;;;11.94;67.11;99819.16;7763702;32;37861;-82
2022/11/06 02:44:22;;;;;;;4.93;3.33;;;;;;;11.87;67.35;99824.91;7764836;32;36998;-81
2022/11/06 02:48:46;;;;;;;8.65;2.92;;;;;;;12.21;66.37;99821.47;7763633;32;39280;-81
2022/11/06 02:53:07;;;;;;;6.53;3.42;;;;;;;12.20;66.67;99817.13;7763539;32;39892;-80
2022/11/06 02:57:25;;;;;;;5.62;3.50;;;;;;;12.02;67.67;99816.66;7763437;32;38709;-81
2022/11/06 03:01:48;;;;;;;8.15;3.78;;;;;;;11.91;68.33;99825.19;7763267;32;36971;-81
2022/11/06 03:06:12;;;;;;;7.43;3.62;;;;;;;11.78;69.29;99826.56;7764547;32;39859;-81
2022/11/06 03:10:34;;;;;;;5.53;3.35;;;;;;;11.98;68.93;99831.97;7763275;32;41432;-81
2022/11/06 03:14:59;;;;;;;6.53;3.62;;;;;;;11.75;69.75;99835.34;7763094;32;37835;-81
2022/11/06 03:19:53;;;;;;;6.40;3.58;;;;;;;11.99;69.03;99843.75;7763081;32;37712;-81
2022/11/06 03:24:14;;;;;;;7.22;4.00;;;;;;;11.44;70.62;99843.59;7739818;32;39075;-81
2022/11/06 03:29:05;;;;;;;6.15;3.30;;;;;;;11.73;69.56;99853.88;7763945;32;39926;-80
2022/11/06 03:33:37;;;;;;;6.45;3.40;;;;;;;11.98;68.41;99856.56;7753561;32;37730;-80
2022/11/06 03:37:56;;;;;;;5.93;3.50;;;;;;;12.28;66.85;99853.97;7762702;32;36898;-81
2022/11/06 03:42:16;;;;;;;7.50;3.87;;;;;;;12.19;67.20;99862.78;7763564;32;39329;-81
2022/11/06 03:46:36;;;;;;;6.32;3.72;;;;;;;12.40;66.32;99860.75;7766957;32;39835;-80
2022/11/06 03:50:59;;;;;;;8.80;3.78;;;;;;;12.44;65.40;99873.84;7766853;32;38632;-81
2022/11/06 03:55:22;;;;;;;7.43;4.15;;;;;;;12.02;65.52;99865.84;7766980;32;36945;-81
2022/11/06 03:59:45;;;;;;;5.40;3.60;;;;;;;12.01;66.18;99877.88;7766827;32;39227;-81
2022/11/06 04:04:11;;;;;;;8.98;4.35;;;;;;;12.07;65.75;99872.37;7766772;32;40825;-81
2022/11/06 04:17:38;;;;;;;9.35;4.65;;;;;;;11.71;67.91;99891.59;7765632;32;39309;-80
2022/11/06 04:22:09;;;;;;;8.20;4.60;;;;;;;11.60;69.11;99896.25;7766451;32;39708;-81
2022/11/06 04:26:35;;;;;;;9.88;4.60;;;;;;;12.22;67.07;99891.44;7766344;32;38776;-81
2022/11/06 04:31:20;;;;;;;7.78;4.28;;;;;;;11.55;70.01;99894.34;7765472;32;37269;-81
2022/11/06 04:35:46;;;;;;;9.50;4.62;;;;;;;11.79;69.22;99900.03;7765485;32;39140;-81
2022/11/06 04:40:10;;;;;;;8.23;4.90;;;;;;;12.11;68.43;99906.28;7766156;32;39941;-81
2022/11/06 04:44:46;;;;;;;9.55;5.32;;;;;;;12.10;68.25;99904.63;7766304;32;38640;-81
2022/11/06 04:49:04;;;;;;;10.43;5.35;;;;;;;11.92;68.97;99900.59;7765153;32;36988;-81
2022/11/06 04:53:21;;;;;;;11.32;5.18;;;;;;;12.14;68.11;99905.69;7765012;32;39273;-80
2022/11/06 04:57:37;;;;;;;12.85;6.35;;;;;;;11.94;68.57;99901.94;7764352;32;40755;-80
2022/11/06 05:01:54;;;;;;;8.68;5.03;;;;;;;11.94;68.88;99901.94;7765934;32;38675;-81
2022/11/06 05:06:10;;;;;;;9.23;5.65;;;;;;;12.26;67.70;99906.19;7766063;32;36837;-81
2022/11/06 05:10:26;;;;;;;11.60;5.20;;;;;;;11.89;69.02;99907.38;7766078;32;40026;-81
2022/11/06 05:14:42;;;;;;;11.32;5.72;;;;;;;12.08;68.24;99901.34;7765922;32;40181;-81
2022/11/06 05:18:58;;;;;;;10.75;5.65;;;;;;;12.14;68.18;99897.50;7765761;32;37650;-81
2022/11/06 05:23:15;;;;;;;9.90;5.72;;;;;;;12.15;67.93;99899.12;7765947;32;37553;-81
2022/11/06 05:27:31;;;;;;;13.45;6.40;;;;;;;12.13;68.00;99896.69;7786801;32;39283;-81
2022/11/06 05:31:48;;;;;;;10.18;5.75;;;;;;;12.07;67.96;99905.16;7792882;32;39985;-81
2022/11/06 05:36:05;;;;;;;11.70;5.97;;;;;;;12.07;68.04;99905.16;7792768;32;37880;-81
2022/11/06 05:40:21;;;;;;;11.85;6.20;;;;;;;12.03;68.24;99905.72;7778886;32;36871;-80
2022/11/06 05:44:37;;;;;;;13.75;6.07;;;;;;;11.84;68.73;99907.41;7792788;32;39152;-79
2022/11/06 05:48:53;;;;;;;10.65;6.30;;;;;;;12.14;67.66;99922.94;7792785;32;40854;-81
2022/11/06 05:53:10;;;;;;;11.18;6.25;;;;;;;12.00;68.08;99917.22;7792513;32;37958;-80
2022/11/06 05:57:26;;;;;;;11.77;6.50;;;;;;;12.14;67.57;99927.56;7792516;32;37736;-80
2022/11/06 06:01:42;;;;;;;11.93;6.28;;;;;;;11.90;68.27;99943.72;7792457;32;40003;-80
2022/11/06 06:05:58;;;;;;;11.57;6.03;;;;;;;12.16;67.62;99944.50;7792509;32;39717;-80
2022/11/06 06:10:15;;;;;;;12.35;6.12;;;;;;;11.98;68.29;99945.91;7792391;32;37555;-80
2022/11/06 06:14:31;;;;;;;11.52;7.00;;;;;;;12.16;67.74;99959.00;7792399;32;37019;-81
2022/11/06 06:18:50;;;;;;;14.02;7.28;;;;;;;12.13;67.97;99954.06;7792461;32;40089;-80
2022/11/06 06:23:08;;;;;;;11.70;6.95;;;;;;;12.10;68.19;99959.28;7792178;32;40618;-81
2022/11/06 06:27:26;;;;;;;14.15;7.65;;;;;;;12.05;68.34;99967.50;7778220;32;38026;-80
2022/11/06 06:31:42;;;;;;;15.43;7.78;;;;;;;12.24;67.77;99967.69;7791817;32;37739;-80
2022/11/06 06:36:01;;;;;;;17.70;7.40;;;;;;;11.68;69.68;99974.91;7792145;32;40068;-80
2022/11/06 06:40:17;;;;;;;16.65;7.57;;;;;;;11.62;70.02;99976.81;7789195;32;40055;-80
2022/11/06 06:44:33;;;;;;;15.70;8.00;;;;;;;12.01;68.73;99983.63;7791255;32;37879;-79
2022/11/06 06:48:50;;;;;;;13.57;7.45;;;;;;;11.77;69.70;99986.91;7791383;32;37004;-80
2022/11/06 06:53:06;;;;;;;13.85;7.72;;;;;;;12.00;69.06;99988.28;7790283;32;39152;-81
2022/11/06 06:57:22;;;;;;;16.83;8.02;;;;;;;12.20;68.39;99998.31;7791478;32;40842;-81
2022/11/06 07:01:38;;;;;;;16.20;7.90;;;;;;;12.27;67.99;99999.97;7791072;32;38010;-80
2022/11/06 07:05:59;;;;;;;15.23;7.93;;;;;;;12.36;68.87;100006.47;7799782;32;37583;-78
2022/11/06 07:10:15;;;;;;;12.65;7.57;;;;;;;12.45;68.23;100020.37;7818991;32;39308;-80
2022/11/06 07:14:31;;;;;;;16.75;8.27;;;;;;;12.24;68.36;100016.91;7818794;32;40839;-83
2022/11/06 07:18:47;;;;;;;19.70;8.07;;;;;;;12.25;68.24;100019.38;7792573;32;38793;-83
2022/11/06 07:23:07;;;;;;;14.98;8.70;;;;;;;12.29;68.15;100028.62;7764017;32;37092;-82
2022/11/06 07:27:23;;;;;;;16.60;7.80;;;;;;;12.49;67.01;100041.44;7763905;32;39199;-83
2022/11/06 07:31:39;;;;;;;13.88;7.65;;;;;;;12.32;67.42;100035.47;7763862;32;40017;-83
2022/11/06 07:36:00;;;;;;;16.00;7.45;;;;;;;11.84;68.45;100031.13;7763706;32;38886;-81
2022/11/06 07:40:17;;;;;;;13.27;7.53;;;;;;;12.08;67.76;100033.34;7771080;32;37481;-83
2022/11/06 07:44:33;;;;;;;13.13;7.30;;;;;;;12.26;66.87;100033.84;7790115;32;39207;-82
2022/11/06 07:48:49;;;;;;;13.45;6.55;;;;;;;12.10;67.86;100041.25;7789296;32;40928;-83
2022/11/06 07:53:05;;;;;;;13.38;7.75;;;;;;;11.34;70.16;100037.41;7788998;32;37908;-83
2022/11/06 07:57:22;;;;;;;14.55;7.60;;;;;;;10.91;71.70;100037.56;7790120;32;37656;-79
2022/11/06 08:01:38;;;;;;;13.38;7.57;;;;;;;11.71;69.78;100028.97;7789611;32;39913;-81
2022/11/06 08:05:55;;;;;;;13.18;7.28;;;;;;;12.22;68.02;100030.84;7789665;32;40025;-81
2022/11/06 08:10:11;;;;;;;14.05;7.25;;;;;;;11.73;69.41;100034.97;7789473;32;38566;-81
2022/11/06 08:14:27;;;;;;;13.10;7.32;;;;;;;11.89;68.30;100034.97;7789246;32;36990;-81
2022/11/06 08:18:43;;;;;;;19.62;9.98;;;;;;;12.01;68.50;100032.81;7789504;32;39198;-81
2022/11/06 08:23:00;;;;;;;16.15;8.75;;;;;;;12.10;68.44;100035.78;7799472;32;39950;-81
2022/11/06 08:27:17;;;;;;;11.93;7.03;;;;;;;12.48;67.01;100039.78;7798180;32;37813;-74
2022/11/06 08:31:33;;;;;;;14.38;7.18;;;;;;;12.49;67.00;100032.44;7791623;32;37737;-83
2022/11/06 08:35:49;;;;;;;13.90;7.70;;;;;;;11.86;68.52;100047.25;7793062;32;40017;-85
2022/11/06 08:40:06;;;;;;;15.65;7.80;;;;;;;11.58;70.00;100034.97;7791628;32;39876;-83
2022/11/06 08:44:23;;;;;;;17.15;8.07;;;;;;;11.81;69.87;100041.78;7792780;32;38124;-84
2022/11/06 08:48:39;;;;;;;12.63;7.10;;;;;;;12.00;69.09;100042.09;7792606;32;36991;-85
2022/11/06 08:52:57;;;;;;;15.23;7.95;;;;;;;11.39;69.94;100045.59;7792742;32;39432;-84
2022/11/06 08:57:13;;;;;;;12.32;7.40;;;;;;;11.79;69.70;100043.97;7793055;32;39840;-83
2022/11/06 09:01:30;;;;;;;15.43;8.73;;;;;;;11.86;69.47;100055.44;7778453;32;38004;-83
2022/11/06 09:05:46;;;;;;;14.65;8.52;;;;;;;12.18;68.35;100048.91;7778117;32;37065;-83
2022/11/06 09:10:03;;;;;;;14.00;7.85;;;;;;;11.92;69.77;100040.75;7792425;32;39011;-84
2022/11/06 09:14:19;;;;;;;19.12;8.50;;;;;;;12.23;68.70;100040.69;7792830;32;40961;-84
2022/11/06 09:18:35;;;;;;;13.43;7.70;;;;;;;12.45;67.45;100034.06;7778491;32;38750;-82
2022/11/06 09:22:52;;;;;;;12.50;7.85;;;;;;;12.67;67.64;100034.53;7778393;32;36999;-83
2022/11/06 09:27:08;;;;;;;12.55;7.10;;;;;;;12.88;67.62;100021.59;7792461;32;39185;-83
2022/11/06 09:31:24;;;;;;;13.30;7.03;;;;;;;12.77;66.22;100028.19;7792509;32;39657;-82
2022/11/06 09:35:42;;;;;;;12.05;6.93;;;;;;;13.06;65.65;100025.59;7792444;32;37859;-81
2022/11/06 09:39:58;;;;;;;12.50;7.22;;;;;;;13.23;63.97;100021.66;7792376;32;37103;-83
2022/11/06 09:44:30;;;;;;;12.60;6.95;;;;;;;13.53;63.76;100017.91;7792412;32;39723;-83
2022/11/06 09:48:57;;;;;;;10.25;5.72;;;;;;;13.59;65.19;100019.53;7792360;32;39944;-83
2022/11/06 09:53:26;;;;;;;10.10;5.60;;;;;;;13.10;64.14;100018.44;7752569;32;38677;-83
2022/11/06 09:57:58;;;;;;;11.10;6.55;;;;;;;12.98;64.93;100007.03;7772364;32;36676;-83
2022/11/06 10:02:43;;;;;;;9.88;6.00;;;;;;;12.55;66.78;100009.41;7778527;32;39536;-81
2022/11/06 10:07:00;;;;;;;11.40;5.95;;;;;;;13.08;64.75;100017.09;7785925;32;39889;-84
2022/11/06 10:11:16;;;;;;;12.15;6.03;;;;;;;13.15;64.83;100007.47;7792037;32;37911;-83
2022/11/06 10:15:57;;;;;;;9.90;5.68;;;;;;;13.20;64.22;100011.28;7792261;32;37582;-83
2022/11/06 10:20:18;;;;;;;11.75;6.70;;;;;;;12.92;65.02;100008.97;7791598;32;39974;-83
2022/11/06 10:25:04;;;;;;;14.45;7.40;;;;;;;12.54;66.75;100013.25;7791698;32;40014;-83
2022/11/06 10:29:44;;;;;;;12.77;7.07;;;;;;;12.44;67.63;100003.19;7808048;32;37963;-83
2022/11/06 10:34:10;;;;;;;19.48;8.70;;;;;;;12.51;67.78;100019.28;7772862;32;36732;-82
2022/11/06 10:38:40;;;;;;;15.00;8.95;;;;;;;12.61;67.30;100007.47;7778048;32;39821;-83
2022/11/06 10:43:17;;;;;;;16.27;8.75;;;;;;;12.90;67.46;100004.88;7791797;32;39750;-82
2022/11/06 10:47:39;;;;;;;12.20;6.93;;;;;;;12.76;68.94;100005.50;7779987;32;38789;-84
2022/11/06 10:52:37;;;;;;;16.77;7.22;;;;;;;13.07;67.68;100005.34;7777226;32;37929;-83
2022/11/06 10:57:14;;;;;;;12.57;6.65;;;;;;;13.38;67.04;99993.37;7779909;32;39965;-83
2022/11/06 11:01:31;;;;;;;15.65;6.65;;;;;;;13.29;66.70;99995.88;7791518;32;39199;-83
2022/11/06 11:05:47;;;;;;;12.43;6.57;;;;;;;13.20;67.33;99997.59;7791249;32;38067;-79
2022/11/06 11:10:22;;;;;;;11.07;6.28;;;;;;;13.57;66.15;99980.63;7790953;32;37854;-82
2022/11/06 11:14:38;;;;;;;10.68;5.87;;;;;;;13.69;65.40;99978.34;7790748;32;39202;-82
2022/11/06 11:19:12;;;;;;;9.77;5.65;;;;;;;13.68;65.12;99976.69;7791365;32;40048;-83
2022/11/06 11:23:29;;;;;;;10.90;6.00;;;;;;;13.87;64.81;99965.84;7783207;32;223115;-82
2022/11/06 11:27:45;;;;;;;8.85;5.22;;;;;;;13.82;65.11;99963.13;7776450;32;37531;-80
2022/11/06 11:32:05;;;;;;;9.43;5.50;;;;;;;13.61;65.22;99970.75;7791181;32;39283;-81
2022/11/06 11:36:22;;;;;;;12.37;5.47;;;;;;;13.67;65.06;99966.84;7777446;32;39581;-81
2022/11/06 11:40:38;;;;;;;8.60;4.72;;;;;;;14.00;63.95;99956.09;7790819;32;37755;-80
2022/11/06 11:45:09;;;;;;;11.25;5.57;;;;;;;13.52;64.80;99959.59;7790837;32;37007;-80
2022/11/06 11:49:33;;;;;;;9.98;5.30;;;;;;;13.92;64.66;99954.00;7790713;32;39334;-81
2022/11/06 11:53:51;;;;;;;14.75;6.93;;;;;;;13.95;64.84;99944.38;7776563;32;40851;-80
2022/11/06 11:58:21;;;;;;;14.57;7.87;;;;;;;13.98;65.24;99952.84;7790414;32;38793;-80
2022/11/06 12:02:43;;;;;;;13.98;7.80;;;;;;;14.08;64.10;99938.22;7777304;32;37219;-80
2022/11/06 12:07:03;;;;;;;12.35;6.97;;;;;;;14.07;64.66;99934.66;7793773;32;40079;-80
2022/11/06 12:11:29;;;;;;;10.90;6.78;;;;;;;14.22;64.11;99936.38;7780292;32;40082;-80
2022/11/06 12:16:12;;;;;;;13.20;6.43;;;;;;;14.32;63.19;99942.88;7780980;32;37916;-82
2022/11/06 12:20:43;;;;;;;11.07;6.15;;;;;;;14.31;62.80;99943.97;7790983;32;36891;-80
2022/11/06 12:25:15;;;;;;;11.82;6.07;;;;;;;13.50;66.01;99947.28;7793523;32;39062;-81
2022/11/06 12:29:40;;;;;;;10.75;5.80;;;;;;;13.62;65.02;99944.16;7793705;32;39899;-80
2022/11/06 12:33:57;;;;;;;10.90;6.12;;;;;;;13.90;64.52;99937.00;7791394;32;37918;-82
2022/11/06 12:38:45;;;;;;;9.32;5.03;;;;;;;13.43;65.83;99947.59;7787731;32;37552;-79
2022/11/06 12:43:28;;;;;;;8.18;5.12;;;;;;;13.77;66.00;99940.47;7766256;32;39198;-81
2022/11/06 12:47:58;;;;;;;11.33;5.63;;;;;;;13.83;65.38;99942.88;7766330;32;40808;-81
2022/11/06 12:52:27;;;;;;;10.88;6.05;;;;;;;13.68;65.96;99934.78;7766174;32;38819;-80
2022/11/06 12:56:53;;;;;;;9.25;5.47;;;;;;;13.87;65.50;99932.94;7779258;32;37762;-80
2022/11/06 13:01:27;;;;;;;9.57;4.95;;;;;;;14.24;64.18;99939.66;7778453;32;39822;-79
2022/11/06 13:05:59;;;;;;;10.48;5.57;;;;;;;14.06;65.36;99930.28;7792986;32;39875;-80
2022/11/06 13:10:44;;;;;;;11.18;5.43;;;;;;;13.99;65.00;99937.22;7776976;32;37960;-78
2022/11/06 13:15:18;;;;;;;10.82;5.65;;;;;;;13.90;64.65;99946.06;7791012;32;37794;-81
2022/11/06 13:19:47;;;;;;;9.65;5.75;;;;;;;14.05;64.44;99936.03;7792740;32;39856;-80
2022/11/06 13:24:17;;;;;;;9.70;5.82;;;;;;;14.45;63.82;99942.13;7779805;32;40343;-79
2022/11/06 13:28:55;;;;;;;13.45;7.37;;;;;;;14.51;63.75;99935.50;7792836;32;37617;-79
2022/11/06 13:33:23;;;;;;;13.13;6.80;;;;;;;14.13;65.72;99942.81;7793015;32;37004;-80
2022/11/06 13:37:42;;;;;;;15.05;6.80;;;;;;;14.19;65.46;99936.16;7779926;32;39489;-80
2022/11/06 13:41:59;;;;;;;14.68;6.90;;;;;;;14.26;64.62;99951.16;7778853;32;39980;-80
2022/11/06 13:46:38;;;;;;;13.75;7.90;;;;;;;14.16;65.16;99954.03;7778844;32;38790;-80
2022/11/06 13:51:02;;;;;;;12.88;6.95;;;;;;;14.00;65.33;99952.53;7781032;32;37006;-80
2022/11/06 13:55:27;;;;;;;12.95;7.22;;;;;;;13.82;66.17;99949.44;7792758;32;39256;-80
2022/11/06 13:59:52;;;;;;;11.77;6.55;;;;;;;14.01;65.75;99940.47;7792041;32;40823;-76
2022/11/06 14:04:36;;;;;;;11.85;6.72;;;;;;;13.79;66.47;99944.53;7792155;32;37894;-80
2022/11/06 14:08:54;;;;;;;;;;;;;;;14.18;65.43;99940.03;7792927;32;37069;-79
2022/11/06 14:13:14;;;;;;;12.00;5.57;;;;;;;14.06;64.99;99948.66;7792653;32;40270;-80
2022/11/06 14:17:30;;;;;;;14.85;8.50;;;;;;;14.22;67.05;99943.81;7778042;32;40536;-77
2022/11/06 14:21:48;;;;;;;14.25;7.62;;;;;;;13.67;66.12;99949.59;7791751;32;36399;-78
2022/11/06 14:26:09;;;;;;;14.80;8.32;;;;;;;14.17;64.48;99941.94;7796935;32;36034;-79
2022/11/06 14:30:29;;;;;;;18.12;10.65;;;;;;;14.06;65.31;99937.69;7802950;32;39144;-78
2022/11/06 14:35:33;;;;;;;19.85;11.93;;;;;;;13.96;65.73;99937.78;7763973;32;41133;-79
2022/11/06 14:39:55;;;;;;;18.90;11.32;;;;;;;13.85;65.95;99946.13;7761369;32;38445;-79
2022/11/06 14:44:40;;;;;;;22.58;12.55;;;;;;;13.91;65.63;99938.66;7797214;32;37068;-79
2022/11/06 14:49:06;;;;;;;18.52;10.88;;;;;;;13.57;67.07;99947.75;7783137;32;39325;-78
2022/11/06 14:53:28;;;;;;;17.35;9.10;;;;;;;13.77;66.79;99938.53;7791725;32;40523;-76
2022/11/06 14:57:48;;;;;;;17.15;9.70;;;;;;;13.93;66.14;99932.87;7791780;32;37996;-78
2022/11/06 15:02:21;;;;;;;16.35;8.52;;;;;;;13.73;66.71;99937.47;7790446;32;38632;-78
2022/11/06 15:06:45;;;;;;;15.45;9.10;;;;;;;13.80;66.01;99937.97;7778151;32;39196;-80
2022/11/06 15:11:01;;;;;;;15.93;9.15;;;;;;;13.80;65.39;99951.66;7791634;32;39820;-81
2022/11/06 15:15:18;;;;;;;18.92;9.68;;;;;;;13.82;65.27;99949.44;7791956;32;37751;-79
2022/11/06 15:19:38;;;;;;;19.40;9.68;;;;;;;13.88;64.97;99948.28;7791302;32;36891;-78
2022/11/06 15:24:04;;;;;;;17.02;10.07;;;;;;;13.90;64.37;99935.13;7791381;32;38220;-78
2022/11/06 15:28:27;;;;;;;15.98;9.73;;;;;;;13.70;64.22;99932.56;7777267;32;40771;-78
2022/11/06 15:32:45;;;;;;;19.67;9.93;;;;;;;13.67;65.11;99927.66;7777601;32;38069;-77
2022/11/06 15:37:15;;;;;;;17.52;9.65;;;;;;;13.78;64.32;99934.69;7777564;32;37530;-78
2022/11/06 15:41:31;;;;;;;16.25;9.05;;;;;;;13.87;63.46;99923.91;7790253;32;39206;-78
2022/11/06 15:46:01;;;;;;;18.08;10.23;;;;;;;13.90;62.79;99923.31;7793500;32;39975;-79
2022/11/06 15:50:27;;;;;;;16.02;9.57;;;;;;;13.58;63.54;99924.75;7758348;32;37946;-80
2022/11/06 15:54:45;;;;;;;13.18;8.75;;;;;;;13.93;62.07;99921.94;7793965;32;36984;-78
2022/11/06 15:59:04;;;;;;;12.20;7.70;;;;;;;13.70;62.56;99932.56;7793947;32;40078;-79
2022/11/06 16:03:23;;;;;;;15.63;8.05;;;;;;;13.70;62.02;99938.06;7794013;32;40524;-79
2022/11/06 16:07:39;;;;;;;15.07;8.55;;;;;;;13.41;62.87;99930.63;7794051;32;36948;-79
2022/11/06 16:11:57;;;;;;;16.37;7.60;;;;;;;13.51;62.21;99933.28;7793467;32;36666;-79
2022/11/06 16:16:44;;;;;;;15.68;8.27;;;;;;;13.04;63.52;99934.75;7779668;32;40064;-77
2022/11/06 16:21:17;;;;;;;15.43;8.25;;;;;;;12.76;64.77;99945.31;7781581;32;39777;-77
2022/11/06 16:25:34;;;;;;;14.80;8.52;;;;;;;13.02;64.01;99950.63;7781457;32;37827;-77
2022/11/06 16:29:55;;;;;;;16.67;8.10;;;;;;;12.89;64.81;99960.28;7793861;32;36975;-77
2022/11/06 16:34:30;;;;;;;17.52;8.82;;;;;;;12.87;64.06;99962.50;7780141;32;39723;-77
2022/11/06 16:38:46;;;;;;;14.15;8.85;;;;;;;12.80;64.26;99966.62;7793589;32;39916;-78
2022/11/06 16:43:02;;;;;;;16.17;8.20;;;;;;;12.78;64.12;99975.94;7779260;32;37861;-77
2022/11/06 16:47:20;;;;;;;15.55;8.93;;;;;;;12.63;64.66;99972.47;7793676;32;37933;-78
2022/11/06 16:51:36;;;;;;;19.40;8.55;;;;;;;12.47;64.90;99979.91;7792750;32;39279;-77
2022/11/06 16:56:01;;;;;;;16.42;8.10;;;;;;;12.38;65.03;99977.78;7793407;32;40878;-78
2022/11/06 17:00:20;;;;;;;16.35;7.68;;;;;;;12.43;64.51;99979.66;7792133;32;38378;-78
2022/11/06 17:04:36;;;;;;;13.60;6.75;;;;;;;12.35;64.39;99981.06;7792334;32;37040;-77
2022/11/06 17:09:27;;;;;;;20.42;8.15;;;;;;;12.59;63.50;99983.16;7779256;32;39278;-77
2022/11/06 17:13:44;;;;;;;16.35;7.50;;;;;;;12.44;63.82;99980.50;7778973;32;39960;-77
2022/11/06 17:18:00;;;;;;;16.05;7.03;;;;;;;12.51;63.29;99989.22;7765017;32;37948;-76
2022/11/06 17:22:16;;;;;;;13.18;6.82;;;;;;;12.36;63.57;99998.28;7766357;32;37087;-77
2022/11/06 17:26:33;;;;;;;12.15;7.25;;;;;;;12.49;63.22;99989.47;7765845;32;38979;-78
2022/11/06 17:30:50;;;;;;;14.05;7.15;;;;;;;12.28;63.38;99987.91;7779054;32;39980;-76
2022/11/06 17:35:07;;;;;;;14.90;8.15;;;;;;;12.25;63.54;99985.75;7792914;32;37842;-83
2022/11/06 17:39:24;;;;;;;15.45;10.15;;;;;;;12.10;64.21;99981.13;7792980;32;37007;-77
2022/11/06 17:43:40;;;;;;;17.15;8.70;;;;;;;12.18;66.99;99975.09;7792736;32;40117;-77
2022/11/06 17:47:56;;;;;;;14.52;8.65;;;;;;;12.01;65.26;99972.69;7792528;32;41234;-78
2022/11/06 17:52:13;;;;;;;14.98;9.00;;;;;;;12.07;65.35;99974.28;7792716;32;38487;-76
2022/11/06 17:56:29;;;;;;;18.85;9.60;;;;;;;12.17;65.03;99981.66;7792753;32;36620;-78
2022/11/06 18:00:52;;;;;;;15.52;9.07;;;;;;;11.91;66.38;99989.09;7792805;32;39084;-78
2022/11/06 18:05:08;;;;;;;13.55;8.20;;;;;;;12.29;65.09;99979.44;7792333;32;39982;-78
2022/11/06 18:09:25;;;;;;;15.48;8.63;;;;;;;12.04;66.04;99977.59;7792402;32;37572;-78
2022/11/06 18:13:41;;;;;;;22.90;9.93;;;;;;;11.92;66.31;99979.81;7792175;32;36661;-78
2022/11/06 18:17:57;;;;;;;16.48;9.13;;;;;;;11.82;66.60;99984.16;7792809;32;39164;-77
2022/11/06 18:22:13;;;;;;;17.45;8.68;;;;;;;12.13;65.54;99988.78;7792463;32;40051;-78
2022/11/06 18:26:29;;;;;;;16.87;8.65;;;;;;;11.87;66.48;99999.72;7792065;32;37948;-79
2022/11/06 18:30:47;;;;;;;15.20;8.13;;;;;;;11.63;67.24;99988.56;7792037;32;37011;-80
2022/11/06 18:35:04;;;;;;;14.90;8.00;;;;;;;12.00;66.37;99996.47;7792282;32;39423;-79
2022/11/06 18:39:20;;;;;;;15.43;8.23;;;;;;;11.99;66.58;99983.09;7792147;32;40759;-78
2022/11/06 18:43:37;;;;;;;15.43;8.73;;;;;;;11.71;67.49;99985.28;7791746;32;37921;-79
2022/11/06 18:47:53;;;;;;;18.65;8.82;;;;;;;11.98;66.79;99982.25;7791599;32;37531;-78
2022/11/06 18:52:09;;;;;;;14.48;8.15;;;;;;;12.03;66.73;99998.63;7791504;32;38981;-78
2022/11/06 18:56:25;;;;;;;12.95;8.25;;;;;;;12.11;66.42;100010.13;7792738;32;39918;-78
2022/11/06 19:00:42;;;;;;;14.87;7.90;;;;;;;12.10;66.08;99998.34;7819082;32;37949;-79
2022/11/06 19:04:58;;;;;;;17.20;9.32;;;;;;;11.60;67.53;100000.81;7805000;32;36999;-78
2022/11/06 19:09:14;;;;;;;17.40;9.98;;;;;;;11.86;66.53;99994.53;7811322;32;39410;-78
2022/11/06 19:13:30;;;;;;;15.63;9.15;;;;;;;11.81;66.10;99996.19;7790541;32;39863;-78
2022/11/06 19:17:47;;;;;;;17.10;8.60;;;;;;;11.63;66.05;99989.38;7777351;32;38682;-76
2022/11/06 19:22:03;;;;;;;14.68;7.93;;;;;;;11.70;65.91;99993.75;7791038;32;37541;-79
2022/11/06 19:26:19;;;;;;;11.18;6.22;;;;;;;11.64;64.99;99991.00;7791164;32;39227;-78
2022/11/06 19:30:51;;;;;;;13.88;7.50;;;;;;;11.50;65.11;99987.19;7791312;32;39657;-78
2022/11/06 19:35:07;;;;;;;14.30;7.18;;;;;;;11.15;66.23;99986.06;7791178;32;37854;-78
2022/11/06 19:39:24;;;;;;;18.42;7.60;;;;;;;11.24;66.22;99986.34;7809571;32;36900;-78
2022/11/06 19:43:40;;;;;;;14.70;7.85;;;;;;;11.33;66.28;99987.47;7791921;32;39255;-77
2022/11/06 19:47:57;;;;;;;10.88;6.37;;;;;;;11.24;66.78;100003.53;7790478;32;40039;-77
2022/11/06 19:52:14;;;;;;;15.05;7.30;;;;;;;11.32;65.98;100004.13;7776814;32;37908;-78
2022/11/06 19:56:50;;;;;;;13.05;7.12;;;;;;;11.58;64.66;99997.56;7789824;32;37217;-79
2022/11/06 20:01:26;;;;;;;12.02;7.57;;;;;;;11.46;64.43;100007.94;7789940;32;40506;-77
2022/11/06 20:05:43;;;;;;;12.63;7.62;;;;;;;11.33;64.51;100003.00;7790361;32;39729;-78
2022/11/06 20:10:01;;;;;;;14.23;8.70;;;;;;;11.03;65.67;99997.22;7790253;32;37904;-76
2022/11/06 20:14:20;;;;;;;15.55;8.02;;;;;;;11.14;66.31;100003.53;7790289;32;36902;-75
2022/11/06 20:18:36;;;;;;;14.70;7.53;;;;;;;11.05;66.80;99988.78;7776517;32;39314;-77
2022/11/06 20:22:53;;;;;;;11.73;6.82;;;;;;;11.11;66.10;99993.16;7788524;32;39677;-78
2022/11/06 20:27:09;;;;;;;14.45;7.47;;;;;;;11.40;64.58;99984.44;7790273;32;37639;-77
2022/11/06 20:31:26;;;;;;;14.38;7.15;;;;;;;11.19;65.03;99979.00;7789782;32;37040;-77